Time;durP1;ratioP1;P1;durP2;ratioP2;P2;SDS_P1;SDS_P2;PMS_P1;PMS_P2;Temp;Humidity;BMP_temperature;BMP_pressure;BME280_temperature;BME280_humidity;BME280_pressure;Samples;Min_cycle;Max_cycle;Signal;HPM_P1;HPM_P2
2022/01/29 00:00:10;;;;;;;48.33;27.90;;;6.60;99.90;;;;;;5078762;28;20137;-67
2022/01/29 00:02:39;;;;;;;50.95;27.83;;;6.60;99.90;;;;;;5078583;28;20040;-68
2022/01/29 00:05:06;;;;;;;50.40;26.83;;;6.60;99.90;;;;;;5061371;28;20165;-68
2022/01/29 00:07:32;;;;;;;49.42;27.25;;;6.60;99.90;;;;;;5079149;28;20032;-68
2022/01/29 00:10:03;;;;;;;50.35;28.20;;;6.60;99.90;;;;;;5077814;28;20048;-70
2022/01/29 00:12:30;;;;;;;48.47;26.55;;;6.70;99.90;;;;;;5078778;28;20101;-70
2022/01/29 00:14:56;;;;;;;46.70;27.23;;;6.70;99.90;;;;;;5077766;28;20025;-68
2022/01/29 00:17:22;;;;;;;47.63;24.95;;;6.60;99.90;;;;;;5078295;28;20047;-69
2022/01/29 00:19:48;;;;;;;52.28;26.73;;;6.70;99.90;;;;;;5060964;28;20039;-68
2022/01/29 00:22:13;;;;;;;47.25;25.50;;;6.60;99.90;;;;;;5078484;28;20321;-69
2022/01/29 00:24:39;;;;;;;47.38;26.50;;;6.60;99.90;;;;;;5077728;28;20295;-70
2022/01/29 00:27:09;;;;;;;46.67;26.20;;;6.60;99.90;;;;;;5078284;28;20032;-67
2022/01/29 00:29:38;;;;;;;48.03;26.45;;;6.60;99.90;;;;;;5077523;28;20043;-70
2022/01/29 00:32:05;;;;;;;46.13;26.63;;;6.70;99.90;;;;;;5077372;28;20029;-68
2022/01/29 00:34:31;;;;;;;53.83;28.30;;;6.60;99.90;;;;;;5077205;28;20049;-67
2022/01/29 00:36:57;;;;;;;55.05;29.45;;;6.40;99.90;;;;;;5078707;28;20025;-70
2022/01/29 00:39:22;;;;;;;52.22;28.70;;;6.40;99.90;;;;;;5078132;28;20400;-68
2022/01/29 00:41:49;;;;;;;59.55;30.98;;;6.40;99.90;;;;;;5061032;28;20021;-68
2022/01/29 00:44:15;;;;;;;54.97;29.67;;;6.40;99.90;;;;;;5077844;28;20343;-69
2022/01/29 00:46:41;;;;;;;59.95;31.05;;;6.40;99.90;;;;;;5077935;28;20025;-65
2022/01/29 00:49:11;;;;;;;53.40;30.40;;;6.60;99.90;;;;;;5077910;28;20024;-65
2022/01/29 00:51:37;;;;;;;60.33;30.23;;;6.50;99.90;;;;;;5078419;28;20043;-68
2022/01/29 00:54:03;;;;;;;55.42;29.77;;;6.30;99.90;;;;;;5077790;28;20029;-66
2022/01/29 00:56:29;;;;;;;59.97;30.23;;;6.30;99.90;;;;;;5077792;28;20158;-67
2022/01/29 00:58:55;;;;;;;62.53;32.28;;;6.30;99.90;;;;;;5076809;28;20057;-67
2022/01/29 01:01:21;;;;;;;62.22;31.23;;;6.20;99.90;;;;;;5077648;28;20404;-66
2022/01/29 01:03:47;;;;;;;59.10;30.65;;;6.20;99.90;;;;;;5077523;28;20021;-69
2022/01/29 01:06:13;;;;;;;64.07;32.45;;;6.20;99.90;;;;;;5077588;28;20062;-68
2022/01/29 01:08:38;;;;;;;65.60;32.63;;;6.20;99.90;;;;;;5077449;28;20053;-66
2022/01/29 01:11:04;;;;;;;63.08;32.30;;;6.20;99.90;;;;;;5060971;28;20032;-66
2022/01/29 01:13:32;;;;;;;67.80;32.97;;;6.20;99.90;;;;;;5077390;28;20396;-68
2022/01/29 01:15:58;;;;;;;66.18;34.20;;;6.20;99.90;;;;;;5076687;28;20043;-68
2022/01/29 01:18:23;;;;;;;70.97;35.00;;;6.20;99.90;;;;;;5076489;28;20037;-68
2022/01/29 01:20:49;;;;;;;73.65;34.10;;;6.30;99.90;;;;;;5077261;28;20350;-66
2022/01/29 01:23:15;;;;;;;64.07;33.47;;;6.20;99.90;;;;;;5077185;28;20347;-69
2022/01/29 01:25:41;;;;;;;65.95;33.47;;;6.20;99.90;;;;;;5077223;28;20402;-67
2022/01/29 01:28:07;;;;;;;67.00;32.97;;;6.20;99.90;;;;;;5077109;28;20058;-69
2022/01/29 01:30:34;;;;;;;68.70;33.70;;;6.20;99.90;;;;;;5076486;28;20044;-67
2022/01/29 01:33:03;;;;;;;68.38;34.40;;;6.30;99.90;;;;;;5077098;28;20350;-66
2022/01/29 01:35:34;;;;;;;68.78;32.30;;;6.20;99.90;;;;;;5076978;28;20084;-67
2022/01/29 01:38:25;;;;;;;75.93;33.05;;;6.20;99.90;;;;;;5077015;28;20044;-65
2022/01/29 01:40:55;;;;;;;65.10;32.45;;;6.30;99.90;;;;;;5076829;28;20179;-66
2022/01/29 01:43:21;;;;;;;77.15;34.83;;;6.20;99.90;;;;;;5076124;28;20025;-66
2022/01/29 01:45:47;;;;;;;70.55;33.75;;;6.20;99.90;;;;;;5076460;28;20040;-67
2022/01/29 01:48:13;;;;;;;64.72;33.08;;;6.20;99.90;;;;;;5077073;28;20127;-67
2022/01/29 01:50:39;;;;;;;73.93;35.03;;;6.40;99.90;;;;;;5077071;28;20028;-66
2022/01/29 01:53:05;;;;;;;73.35;34.42;;;6.40;99.90;;;;;;5077015;28;20043;-65
2022/01/29 01:55:32;;;;;;;71.50;33.85;;;6.40;99.90;;;;;;5075343;28;20037;-65
2022/01/29 01:57:58;;;;;;;69.10;32.67;;;6.30;99.90;;;;;;5076204;28;20051;-68
2022/01/29 02:00:27;;;;;;;69.40;33.70;;;6.30;99.90;;;;;;5076911;28;20304;-67
2022/01/29 02:02:54;;;;;;;75.10;33.67;;;6.20;99.90;;;;;;5076867;28;20032;-67
2022/01/29 02:05:20;;;;;;;69.53;32.90;;;6.20;99.90;;;;;;5076144;28;20043;-69
2022/01/29 02:07:46;;;;;;;71.22;34.28;;;6.20;99.90;;;;;;5076057;28;20029;-67
2022/01/29 02:10:13;;;;;;;71.60;34.08;;;6.30;99.90;;;;;;5076798;28;20350;-65
2022/01/29 02:12:59;;;;;;;73.88;32.65;;;6.30;99.90;;;;;;5076028;28;20032;-67
2022/01/29 02:15:26;;;;;;;72.22;32.80;;;6.30;99.90;;;;;;5076153;28;20288;-67
2022/01/29 02:17:52;;;;;;;71.32;31.70;;;6.30;99.90;;;;;;5076969;28;20037;-67
2022/01/29 02:20:24;;;;;;;76.90;33.22;;;6.40;99.90;;;;;;5076726;28;20028;-67
2022/01/29 02:22:50;;;;;;;75.90;32.45;;;6.50;99.90;;;;;;5059353;28;20029;-65
2022/01/29 02:25:39;;;;;;;67.53;31.52;;;6.40;99.90;;;;;;5076051;28;20029;-65
2022/01/29 02:28:14;;;;;;;64.70;30.38;;;6.40;99.90;;;;;;5075902;28;20123;-67
2022/01/29 02:30:42;;;;;;;66.35;32.20;;;6.50;99.90;;;;;;5076589;28;20028;-65
2022/01/29 02:33:12;;;;;;;63.80;30.75;;;6.50;99.90;;;;;;5076930;28;20034;-65
2022/01/29 02:35:46;;;;;;;65.18;30.67;;;6.60;99.90;;;;;;5076388;28;20098;-64
2022/01/29 02:38:13;;;;;;;59.38;28.20;;;6.60;99.90;;;;;;5076808;28;20071;-63
2022/01/29 02:40:46;;;;;;;67.63;29.40;;;6.50;99.90;;;;;;5076840;28;20407;-66
2022/01/29 02:43:18;;;;;;;67.80;29.55;;;6.50;99.90;;;;;;5076819;28;20047;-64
2022/01/29 02:45:45;;;;;;;65.05;29.55;;;6.50;99.90;;;;;;5075824;28;20039;-66
2022/01/29 02:48:12;;;;;;;56.65;28.10;;;6.60;99.90;;;;;;5075793;28;20386;-64
2022/01/29 02:50:38;;;;;;;55.70;27.58;;;6.60;99.90;;;;;;5076412;28;20028;-63
2022/01/29 02:53:05;;;;;;;59.83;28.25;;;6.60;99.90;;;;;;5075621;28;20335;-66
2022/01/29 02:55:30;;;;;;;61.38;28.67;;;6.60;99.90;;;;;;5076329;28;20075;-67
2022/01/29 02:57:57;;;;;;;60.25;27.25;;;6.70;99.90;;;;;;5076313;28;20056;-66
2022/01/29 03:00:23;;;;;;;60.65;28.13;;;6.80;99.90;;;;;;5076359;28;20035;-65
2022/01/29 03:02:49;;;;;;;59.38;27.35;;;6.70;99.90;;;;;;5075972;28;20028;-66
2022/01/29 03:05:15;;;;;;;53.55;26.80;;;6.70;99.90;;;;;;5076727;28;20047;-66
2022/01/29 03:07:41;;;;;;;56.08;26.73;;;6.70;99.90;;;;;;5079976;28;20115;-65
2022/01/29 03:10:07;;;;;;;55.97;25.85;;;6.80;99.90;;;;;;5079246;28;20029;-65
2022/01/29 03:12:37;;;;;;;56.05;26.40;;;6.70;99.90;;;;;;5079935;28;20083;-65
2022/01/29 03:15:04;;;;;;;57.53;25.42;;;6.80;99.90;;;;;;5079825;28;20150;-65
2022/01/29 03:17:30;;;;;;;53.15;25.83;;;6.70;99.90;;;;;;5079711;28;20044;-65
2022/01/29 03:19:56;;;;;;;52.47;25.40;;;6.80;99.90;;;;;;5079787;28;20396;-66
2022/01/29 03:22:22;;;;;;;47.75;24.95;;;6.80;99.90;;;;;;5079731;28;20032;-65
2022/01/29 03:24:47;;;;;;;52.67;26.92;;;6.90;99.90;;;;;;5079690;28;20308;-63
2022/01/29 03:27:13;;;;;;;49.05;26.08;;;6.90;99.90;;;;;;5079675;28;20066;-65
2022/01/29 03:29:39;;;;;;;45.92;24.83;;;6.90;99.90;;;;;;5079613;28;20028;-66
2022/01/29 03:32:05;;;;;;;54.78;25.92;;;6.90;99.90;;;;;;5062167;28;20063;-65
2022/01/29 03:34:31;;;;;;;51.60;26.40;;;6.90;99.90;;;;;;5079640;28;20130;-65
2022/01/29 03:36:57;;;;;;;56.78;27.20;;;6.90;99.90;;;;;;5078766;28;20074;-66
2022/01/29 03:39:25;;;;;;;53.58;26.40;;;6.90;99.90;;;;;;5079369;28;20037;-66
2022/01/29 03:41:51;;;;;;;51.65;26.73;;;7.00;99.90;;;;;;5079082;28;20032;-65
2022/01/29 03:44:17;;;;;;;49.65;26.15;;;7.00;99.90;;;;;;5079309;28;20108;-66
2022/01/29 03:46:44;;;;;;;49.28;25.35;;;7.00;99.90;;;;;;5079272;28;20174;-66
2022/01/29 03:49:09;;;;;;;50.22;26.65;;;7.10;99.90;;;;;;5079260;28;20033;-67
2022/01/29 03:51:35;;;;;;;55.72;26.90;;;7.20;99.90;;;;;;5079220;28;20047;-66
2022/01/29 03:54:01;;;;;;;53.60;25.40;;;7.20;99.90;;;;;;5079097;28;20477;-66
2022/01/29 03:56:27;;;;;;;48.38;26.83;;;7.20;99.90;;;;;;5078990;28;20037;-66
2022/01/29 03:58:53;;;;;;;52.15;25.98;;;7.20;99.90;;;;;;5078956;28;20451;-66
2022/01/29 04:01:18;;;;;;;48.42;24.60;;;7.20;99.90;;;;;;5078784;28;20404;-66
2022/01/29 04:03:44;;;;;;;50.55;24.98;;;7.30;99.90;;;;;;5078819;28;20032;-65
2022/01/29 04:06:10;;;;;;;52.63;25.25;;;7.20;99.90;;;;;;5078917;28;20444;-66
2022/01/29 04:08:40;;;;;;;46.30;24.73;;;7.20;99.90;;;;;;5078167;28;20404;-67
2022/01/29 04:11:08;;;;;;;44.22;23.42;;;7.30;99.90;;;;;;5079002;28;20095;-65
2022/01/29 04:13:33;;;;;;;43.90;23.23;;;7.30;99.90;;;;;;5077961;28;20037;-68
2022/01/29 04:15:59;;;;;;;44.97;23.67;;;7.30;99.90;;;;;;5077972;28;20043;-66
2022/01/29 04:18:25;;;;;;;47.95;24.02;;;7.30;99.90;;;;;;5077071;28;20431;-66
2022/01/29 04:20:51;;;;;;;70.57;40.45;;;7.30;99.90;;;;;;5078672;28;20028;-67
2022/01/29 04:23:16;;;;;;;41.78;22.20;;;7.40;99.90;;;;;;5077826;28;20025;-66
2022/01/29 04:25:42;;;;;;;40.58;22.25;;;7.40;99.90;;;;;;5044629;28;20029;-67
2022/01/29 04:28:13;;;;;;;38.45;20.10;;;7.40;99.90;;;;;;5077628;28;20067;-64
2022/01/29 04:30:45;;;;;;;39.28;21.20;;;7.40;99.90;;;;;;5078465;28;20109;-66
2022/01/29 04:35:51;;;;;;;35.78;19.80;;;7.60;99.90;;;;;;5077565;28;20079;-66
2022/01/29 04:38:18;;;;;;;34.60;20.02;;;7.60;99.90;;;;;;5078275;28;20431;-66
2022/01/29 04:40:44;;;;;;;32.90;18.73;;;7.70;99.90;;;;;;5078235;28;20315;-65
2022/01/29 04:43:09;;;;;;;32.22;19.35;;;7.70;99.90;;;;;;5077532;28;20033;-65
2022/01/29 04:45:35;;;;;;;32.58;19.20;;;7.70;99.90;;;;;;5078169;28;20106;-67
2022/01/29 04:48:02;;;;;;;32.33;18.33;;;7.70;99.90;;;;;;5078100;28;20450;-66
2022/01/29 04:50:28;;;;;;;30.55;17.73;;;7.80;99.90;;;;;;5078083;28;20347;-67
2022/01/29 04:52:54;;;;;;;26.75;16.88;;;7.90;99.90;;;;;;5078387;28;20051;-67
2022/01/29 04:55:19;;;;;;;27.50;17.38;;;7.90;99.90;;;;;;5077357;28;20399;-65
2022/01/29 04:57:45;;;;;;;27.98;16.90;;;7.90;99.90;;;;;;5077906;28;20446;-66
2022/01/29 05:00:19;;;;;;;25.50;16.20;;;7.90;99.90;;;;;;5077423;28;20043;-65
2022/01/29 05:02:47;;;;;;;28.38;16.23;;;7.90;99.90;;;;;;5060489;28;20312;-67
2022/01/29 05:05:13;;;;;;;26.40;16.10;;;7.90;99.90;;;;;;5078029;28;20032;-66
2022/01/29 05:07:39;;;;;;;26.00;16.52;;;7.90;99.90;;;;;;5078149;28;20041;-67
2022/01/29 05:10:05;;;;;;;24.58;15.57;;;8.00;99.90;;;;;;5077918;28;20024;-66
2022/01/29 05:12:42;;;;;;;24.92;15.55;;;7.90;99.90;;;;;;5077413;28;20035;-67
2022/01/29 05:15:21;;;;;;;21.73;15.20;;;7.90;99.90;;;;;;5077622;28;20137;-66
2022/01/29 05:28:46;;;;;;;20.70;13.73;;;8.10;99.90;;;;;;5077196;28;20036;-65
2022/01/29 05:31:12;;;;;;;21.33;14.38;;;8.10;99.90;;;;;;5077866;28;20326;-66
2022/01/29 05:33:37;;;;;;;21.48;14.15;;;8.10;99.90;;;;;;5077231;28;20160;-68
2022/01/29 05:36:03;;;;;;;20.83;14.20;;;8.20;99.90;;;;;;5076334;28;20316;-68
2022/01/29 05:38:29;;;;;;;20.85;13.85;;;8.40;99.90;;;;;;5077329;28;20032;-68
2022/01/29 05:40:55;;;;;;;20.05;13.90;;;8.50;99.90;;;;;;5077222;28;20167;-66
2022/01/29 05:43:22;;;;;;;20.52;13.73;;;8.40;99.90;;;;;;5077155;28;20406;-66
2022/01/29 05:45:48;;;;;;;19.40;13.80;;;8.40;99.90;;;;;;5059726;28;20300;-68
2022/01/29 05:48:14;;;;;;;18.40;12.85;;;8.40;99.90;;;;;;5059787;28;20070;-67
2022/01/29 05:50:39;;;;;;;19.10;13.73;;;8.50;99.90;;;;;;5077054;28;20094;-64
2022/01/29 05:53:05;;;;;;;20.60;13.27;;;8.50;99.90;;;;;;5077041;28;20304;-67
2022/01/29 05:55:31;;;;;;;18.45;13.98;;;8.50;99.90;;;;;;5076976;28;20128;-67
2022/01/29 05:57:57;;;;;;;18.77;12.90;;;8.40;99.90;;;;;;5076919;28;20455;-68
2022/01/29 06:00:23;;;;;;;17.00;12.50;;;8.40;99.90;;;;;;5076984;28;20163;-70
2022/01/29 06:03:18;;;;;;;20.55;12.88;;;8.60;99.90;;;;;;5076246;28;20021;-69
2022/01/29 06:05:44;;;;;;;17.98;12.32;;;8.70;99.90;;;;;;5075091;28;20317;-70
2022/01/29 06:08:10;;;;;;;19.17;12.63;;;8.80;99.90;;;;;;5076869;28;20036;-69
2022/01/29 06:10:36;;;;;;;16.10;12.02;;;8.70;99.90;;;;;;5076918;28;20040;-68
2022/01/29 06:13:09;;;;;;;16.88;12.80;;;8.70;99.90;;;;;;5076799;28;20296;-69
2022/01/29 06:15:46;;;;;;;19.23;12.25;;;8.70;99.90;;;;;;5076989;28;20299;-70
2022/01/29 06:18:19;;;;;;;17.02;11.82;;;8.70;99.90;;;;;;5077025;28;20039;-69
2022/01/29 06:20:49;;;;;;;;;;;8.80;99.90;;;;;;5076562;28;20040;-69
2022/01/29 06:23:16;;;;;;;14.82;10.90;;;8.70;99.90;;;;;;5076817;28;19982;-69
2022/01/29 06:25:43;;;;;;;17.13;11.43;;;8.80;99.90;;;;;;5076718;28;20031;-72
2022/01/29 06:28:09;;;;;;;17.45;11.55;;;8.80;99.90;;;;;;5075923;28;20029;-70
2022/01/29 06:30:35;;;;;;;18.15;11.60;;;9.00;99.90;;;;;;5075916;28;20043;-71
2022/01/29 06:33:08;;;;;;;15.38;11.25;;;9.10;99.90;;;;;;5077008;28;20036;-70
2022/01/29 06:35:36;;;;;;;16.13;11.02;;;9.20;99.90;;;;;;5076528;28;20044;-71
2022/01/29 06:38:02;;;;;;;16.70;11.07;;;9.30;99.90;;;;;;5076506;28;20036;-70
2022/01/29 06:40:28;;;;;;;15.55;10.52;;;9.40;99.90;;;;;;5077503;28;20311;-71
2022/01/29 06:42:53;;;;;;;13.50;10.50;;;9.40;99.90;;;;;;5079918;28;20036;-71
2022/01/29 06:45:19;;;;;;;14.23;11.27;;;9.40;99.90;;;;;;5079811;28;20047;-69
2022/01/29 06:47:45;;;;;;;14.82;10.57;;;9.20;99.90;;;;;;5079771;28;20029;-70
2022/01/29 06:50:11;;;;;;;14.30;10.20;;;9.40;99.90;;;;;;5080073;28;20395;-71
2022/01/29 06:52:36;;;;;;;14.63;10.77;;;9.40;99.90;;;;;;5063486;28;20052;-72
2022/01/29 06:55:02;;;;;;;15.98;10.02;;;9.50;99.90;;;;;;5079618;28;20040;-68
2022/01/29 06:57:28;;;;;;;13.82;9.63;;;9.60;99.90;;;;;;5080158;28;20044;-70
2022/01/29 06:59:54;;;;;;;13.57;9.65;;;9.50;99.90;;;;;;5079870;28;20026;-70
2022/01/29 07:02:20;;;;;;;13.75;10.20;;;9.60;99.90;;;;;;5080164;28;20124;-69
2022/01/29 07:04:46;;;;;;;13.65;9.63;;;9.40;99.90;;;;;;5080106;28;20082;-71
2022/01/29 07:07:11;;;;;;;13.73;9.48;;;9.50;99.90;;;;;;5062613;28;20043;-69
2022/01/29 07:09:37;;;;;;;14.63;9.85;;;9.40;99.90;;;;;;5079276;28;20070;-71
2022/01/29 07:12:12;;;;;;;13.13;9.73;;;9.50;99.90;;;;;;5079988;28;20033;-65
2022/01/29 07:14:40;;;;;;;14.75;9.43;;;9.50;99.90;;;;;;5079509;28;20056;-72
2022/01/29 07:17:15;;;;;;;13.90;9.23;;;9.60;99.90;;;;;;5079850;28;20111;-68
2022/01/29 07:19:41;;;;;;;13.90;10.32;;;9.50;99.90;;;;;;5079929;28;20033;-71
2022/01/29 07:22:06;;;;;;;13.85;9.85;;;9.50;99.90;;;;;;5079183;28;20411;-69
2022/01/29 07:24:34;;;;;;;13.40;9.50;;;9.50;99.90;;;;;;5079780;28;20028;-68
2022/01/29 07:26:59;;;;;;;14.23;9.95;;;9.70;99.90;;;;;;5080628;28;20383;-70
2022/01/29 07:29:25;;;;;;;13.32;9.90;;;9.80;99.90;;;;;;5080200;28;20056;-71
2022/01/29 07:31:51;;;;;;;12.23;9.38;;;9.90;99.90;;;;;;5079691;28;20039;-71
2022/01/29 07:34:17;;;;;;;14.95;10.18;;;9.90;99.90;;;;;;5078677;28;20385;-68
2022/01/29 07:36:43;;;;;;;12.50;9.20;;;10.00;99.90;;;;;;5079597;28;20408;-69
2022/01/29 07:39:10;;;;;;;10.85;8.75;;;10.00;99.90;;;;;;5079386;28;20044;-70
2022/01/29 07:41:36;;;;;;;14.10;9.73;;;9.90;99.90;;;;;;5078853;28;20028;-68
2022/01/29 07:44:07;;;;;;;13.30;9.68;;;9.90;99.90;;;;;;5078687;28;20029;-71
2022/01/29 07:46:32;;;;;;;12.02;9.35;;;9.90;99.90;;;;;;5079416;28;20098;-74
2022/01/29 07:48:58;;;;;;;14.32;9.82;;;9.90;99.90;;;;;;5078540;28;20123;-71
2022/01/29 07:51:24;;;;;;;17.02;9.93;;;10.00;99.90;;;;;;5078764;28;20086;-71
2022/01/29 07:53:50;;;;;;;15.27;9.63;;;10.10;99.90;;;;;;5078544;28;20025;-69
2022/01/29 07:56:16;;;;;;;13.15;9.48;;;9.90;99.90;;;;;;5078471;28;20098;-70
2022/01/29 07:58:42;;;;;;;15.50;9.55;;;9.90;99.90;;;;;;5078324;28;20040;-70
2022/01/29 08:01:08;;;;;;;15.70;10.20;;;9.90;99.90;;;;;;5079138;28;20435;-70
2022/01/29 08:03:34;;;;;;;17.63;10.45;;;9.90;99.90;;;;;;5078406;28;20068;-70
2022/01/29 08:06:00;;;;;;;11.63;9.30;;;10.00;99.90;;;;;;5079563;28;20311;-69
2022/01/29 08:08:25;;;;;;;16.90;10.15;;;10.10;99.90;;;;;;5078906;28;20387;-71
2022/01/29 08:10:52;;;;;;;13.05;10.10;;;10.10;99.90;;;;;;5062143;28;20379;-72
2022/01/29 08:13:18;;;;;;;13.73;9.10;;;10.10;99.90;;;;;;5061617;28;20032;-70
2022/01/29 08:15:44;;;;;;;12.23;9.40;;;10.20;99.90;;;;;;5077977;28;20038;-69
2022/01/29 08:18:10;;;;;;;15.50;9.90;;;10.10;99.90;;;;;;5078700;28;20466;-69
2022/01/29 08:20:36;;;;;;;13.88;9.70;;;10.20;99.90;;;;;;5078780;28;20041;-72
2022/01/29 08:23:09;;;;;;;14.18;9.60;;;10.10;99.90;;;;;;5078246;28;20353;-68
2022/01/29 08:25:37;;;;;;;14.52;9.50;;;10.20;99.90;;;;;;5078052;28;20056;-68
2022/01/29 08:28:04;;;;;;;14.45;9.95;;;10.00;99.90;;;;;;5078609;28;20040;-73
2022/01/29 08:30:30;;;;;;;14.10;9.52;;;10.10;99.90;;;;;;5078675;28;20303;-72
2022/01/29 08:32:56;;;;;;;11.13;8.57;;;10.10;99.90;;;;;;5078663;28;20032;-72
2022/01/29 08:35:22;;;;;;;13.05;9.40;;;10.10;99.90;;;;;;5078379;28;20055;-68
2022/01/29 08:37:48;;;;;;;12.77;9.13;;;10.10;99.90;;;;;;5077758;28;20037;-71
2022/01/29 08:40:14;;;;;;;13.85;8.48;;;10.20;99.90;;;;;;5078368;28;20059;-70
2022/01/29 08:42:40;;;;;;;12.25;8.38;;;10.20;99.90;;;;;;5060958;28;20036;-72
2022/01/29 08:45:08;;;;;;;11.85;7.85;;;10.10;99.90;;;;;;5077471;28;20028;-69
2022/01/29 08:47:34;;;;;;;11.43;7.75;;;10.00;99.90;;;;;;5077350;28;20306;-70
2022/01/29 08:50:03;;;;;;;14.85;8.38;;;10.00;99.90;;;;;;5077378;28;20029;-69
2022/01/29 08:52:30;;;;;;;11.70;8.25;;;10.00;99.90;;;;;;5078090;28;20048;-70
2022/01/29 08:54:56;;;;;;;9.48;8.20;;;10.20;99.90;;;;;;5077674;28;20036;-70
2022/01/29 08:57:23;;;;;;;10.35;8.23;;;10.20;99.90;;;;;;5078628;28;20266;-74
2022/01/29 08:59:49;;;;;;;14.27;7.95;;;10.20;99.90;;;;;;5078163;28;20027;-72
2022/01/29 09:02:15;;;;;;;11.13;7.90;;;10.20;99.90;;;;;;5077873;28;20028;-71
2022/01/29 09:04:41;;;;;;;9.90;7.68;;;10.30;99.90;;;;;;5077543;28;20262;-73
2022/01/29 09:07:06;;;;;;;11.25;7.95;;;10.20;99.90;;;;;;5076998;28;20038;-73
2022/01/29 09:09:32;;;;;;;9.50;8.20;;;10.20;99.90;;;;;;5076858;28;20392;-71
2022/01/29 09:11:59;;;;;;;11.05;8.25;;;10.10;99.90;;;;;;5078069;28;20123;-70
2022/01/29 09:14:25;;;;;;;11.40;8.27;;;10.10;99.90;;;;;;5060428;28;20120;-72
2022/01/29 09:16:50;;;;;;;11.23;7.82;;;10.10;99.90;;;;;;5077368;28;20348;-71
2022/01/29 09:19:16;;;;;;;11.70;8.57;;;10.20;99.90;;;;;;5076565;28;20316;-72
2022/01/29 09:21:42;;;;;;;11.27;8.55;;;10.20;99.90;;;;;;5043545;28;20431;-72
2022/01/29 09:24:08;;;;;;;11.30;8.35;;;10.20;99.90;;;;;;5076917;28;20044;-72
2022/01/29 09:26:34;;;;;;;12.45;8.35;;;10.10;99.90;;;;;;5077324;28;20098;-70
2022/01/29 09:28:59;;;;;;;12.48;8.10;;;10.00;99.90;;;;;;5076545;28;20044;-70
2022/01/29 09:31:25;;;;;;;13.10;8.85;;;10.00;99.90;;;;;;5077192;28;20269;-70
2022/01/29 09:33:51;;;;;;;10.02;8.30;;;10.00;99.90;;;;;;5059722;28;20123;-69
2022/01/29 09:36:17;;;;;;;11.02;8.05;;;10.10;99.90;;;;;;5059841;28;20317;-70
2022/01/29 09:38:43;;;;;;;10.93;8.40;;;10.30;99.90;;;;;;5076207;28;20043;-73
2022/01/29 09:41:09;;;;;;;10.45;7.75;;;10.30;99.90;;;;;;5076906;28;20322;-69
2022/01/29 09:43:35;;;;;;;11.77;7.72;;;10.20;99.90;;;;;;5076961;28;20048;-72
2022/01/29 09:46:01;;;;;;;10.10;7.50;;;10.30;99.90;;;;;;5076548;28;20032;-72
2022/01/29 09:48:29;;;;;;;11.30;7.60;;;10.40;99.90;;;;;;5076116;28;20163;-69
2022/01/29 09:50:57;;;;;;;9.82;7.25;;;10.70;99.90;;;;;;5076142;28;20039;-68
2022/01/29 09:53:23;;;;;;;9.77;6.93;;;10.80;99.90;;;;;;5076876;28;20308;-70
2022/01/29 09:55:49;;;;;;;9.02;7.13;;;10.90;99.90;;;;;;5076842;28;20040;-67
2022/01/29 09:58:15;;;;;;;9.27;6.80;;;10.90;99.90;;;;;;5076443;28;20036;-72
2022/01/29 10:00:41;;;;;;;10.27;6.30;;;10.90;99.90;;;;;;5076921;28;20383;-71
2022/01/29 10:03:10;;;;;;;7.38;5.88;;;10.90;99.90;;;;;;5076813;28;20028;-71
2022/01/29 10:05:37;;;;;;;8.35;5.60;;;10.90;99.90;;;;;;5076223;28;20028;-72
2022/01/29 10:08:05;;;;;;;6.78;5.25;;;11.10;99.90;;;;;;5076900;28;20044;-71
2022/01/29 10:10:39;;;;;;;6.50;5.13;;;11.10;99.90;;;;;;5075965;28;20043;-70
2022/01/29 10:13:37;;;;;;;6.30;4.57;;;10.80;99.90;;;;;;5076052;28;20111;-70
2022/01/29 10:16:11;;;;;;;6.90;4.00;;;10.70;99.90;;;;;;5075297;28;20106;-67
2022/01/29 10:18:39;;;;;;;6.22;4.07;;;10.60;99.90;;;;;;5076758;28;20032;-70
2022/01/29 10:21:13;;;;;;;6.00;3.67;;;10.60;99.90;;;;;;5076005;28;20052;-69
2022/01/29 10:23:40;;;;;;;5.78;4.00;;;10.70;99.90;;;;;;5076683;28;20028;-66
2022/01/29 10:26:07;;;;;;;4.75;3.60;;;10.90;99.90;;;;;;5076564;28;20377;-69
2022/01/29 10:28:33;;;;;;;6.20;3.90;;;11.10;99.90;;;;;;5075948;28;20033;-70
2022/01/29 10:31:05;;;;;;;4.18;3.00;;;11.30;99.90;;;;;;5077130;28;20384;-68
2022/01/29 10:33:37;;;;;;;6.72;3.40;;;11.30;99.90;;;;;;5075738;28;20043;-69
2022/01/29 10:36:16;;;;;;;7.07;3.13;;;11.20;99.90;;;;;;5075727;28;20060;-68
2022/01/29 10:38:55;;;;;;;6.05;2.85;;;11.10;99.90;;;;;;5076571;28;20040;-68
2022/01/29 10:41:28;;;;;;;5.40;2.88;;;10.90;99.90;;;;;;5059269;28;20025;-69
2022/01/29 10:43:53;;;;;;;;;;;11.20;99.90;;;;;;5077060;28;20016;-69
2022/01/29 10:46:32;;;;;;;4.63;2.72;;;11.30;99.90;;;;;;5075770;28;19922;-72
2022/01/29 10:49:00;;;;;;;6.45;2.88;;;11.30;99.90;;;;;;5076067;28;20400;-68
2022/01/29 10:51:26;;;;;;;5.70;2.78;;;11.40;99.90;;;;;;5076305;28;20056;-70
2022/01/29 10:53:53;;;;;;;4.50;2.80;;;11.50;99.90;;;;;;5058996;28;20461;-71
2022/01/29 10:56:22;;;;;;;4.18;2.50;;;11.30;99.90;;;;;;5058944;28;20432;-71
2022/01/29 10:58:50;;;;;;;3.78;2.67;;;11.50;99.90;;;;;;5075571;28;20065;-69
2022/01/29 11:01:17;;;;;;;6.15;2.97;;;11.40;99.90;;;;;;5075948;28;20295;-69
2022/01/29 11:03:44;;;;;;;6.15;2.50;;;11.40;99.90;;;;;;5076474;28;20032;-68
2022/01/29 11:06:13;;;;;;;4.68;2.63;;;11.40;99.90;;;;;;5076302;28;20092;-69
2022/01/29 11:08:40;;;;;;;5.05;2.40;;;11.50;99.90;;;;;;5075520;28;20033;-67
2022/01/29 11:11:08;;;;;;;4.30;2.42;;;11.70;99.90;;;;;;5076187;28;20048;-70
2022/01/29 11:13:35;;;;;;;3.72;2.33;;;11.80;99.90;;;;;;5076142;28;20041;-70
2022/01/29 11:16:03;;;;;;;4.65;2.38;;;11.90;99.90;;;;;;5075319;28;20119;-68
2022/01/29 11:18:31;;;;;;;3.95;2.28;;;12.00;99.90;;;;;;5076048;28;20036;-71
2022/01/29 11:20:58;;;;;;;3.97;2.30;;;11.90;99.90;;;;;;5076156;28;20039;-70
2022/01/29 11:23:25;;;;;;;2.90;2.25;;;11.70;99.90;;;;;;5076136;28;20040;-72
2022/01/29 11:25:55;;;;;;;4.95;2.72;;;11.60;99.90;;;;;;5076044;28;20021;-67
2022/01/29 11:28:26;;;;;;;3.92;2.20;;;11.70;99.90;;;;;;5078816;28;20326;-70
2022/01/29 11:31:15;;;;;;;3.72;2.58;;;11.90;99.90;;;;;;5078795;28;20400;-61
2022/01/29 11:33:59;;;;;;;6.18;3.83;;;12.10;99.90;;;;;;5079268;28;20093;-68
2022/01/29 11:36:46;;;;;;;4.88;2.70;;;11.80;99.90;;;;;;5079459;28;20045;-70
2022/01/29 11:39:22;;;;;;;4.00;2.17;;;11.90;99.90;;;;;;5079382;28;20081;-67
2022/01/29 11:42:10;;;;;;;3.53;2.22;;;11.90;99.90;;;;;;5079258;28;20079;-65
2022/01/29 11:44:36;;;;;;;17.00;7.45;;;11.90;99.90;;;;;;5079341;28;20116;-69
2022/01/29 11:47:27;;;;;;;8.02;3.72;;;12.00;99.90;;;;;;5079249;28;20025;-69
2022/01/29 11:50:19;;;;;;;3.67;2.60;;;12.00;99.90;;;;;;5079231;28;20346;-71
2022/01/29 11:52:58;;;;;;;8.55;4.30;;;12.10;99.90;;;;;;5079195;28;20029;-69
2022/01/29 11:55:46;;;;;;;5.57;2.55;;;12.30;99.90;;;;;;5078522;28;20416;-68
2022/01/29 11:58:17;;;;;;;3.92;2.42;;;12.20;99.90;;;;;;5078921;28;20025;-68
2022/01/29 12:00:45;;;;;;;3.72;2.20;;;12.20;99.90;;;;;;5078922;28;20326;-63
2022/01/29 12:03:50;;;;;;;4.13;2.50;;;12.30;99.90;;;;;;5078936;28;20032;-67
2022/01/29 12:11:27;;;;;;;3.88;2.10;;;12.30;99.90;;;;;;5078908;28;20395;-63
2022/01/29 12:14:12;;;;;;;3.55;1.92;;;12.40;99.90;;;;;;5078831;28;20028;-65
2022/01/29 12:16:54;;;;;;;3.72;2.05;;;12.20;99.90;;;;;;5078749;28;20043;-67
2022/01/29 12:19:40;;;;;;;1.95;1.73;;;12.30;99.90;;;;;;5078012;28;20036;-63
2022/01/29 12:22:10;;;;;;;3.95;2.17;;;12.60;99.90;;;;;;5078554;28;20028;-68
2022/01/29 12:24:36;;;;;;;5.38;2.22;;;12.70;99.90;;;;;;5078566;28;20049;-62
2022/01/29 12:27:03;;;;;;;3.15;1.95;;;12.60;99.90;;;;;;5078637;28;20028;-69
2022/01/29 12:29:30;;;;;;;6.95;2.20;;;12.60;99.90;;;;;;5077717;28;20070;-66
2022/01/29 12:31:57;;;;;;;4.97;1.90;;;12.60;99.90;;;;;;5078520;28;20028;-66
2022/01/29 12:34:25;;;;;;;4.30;1.83;;;12.40;99.90;;;;;;5060913;28;20028;-66
2022/01/29 12:36:51;;;;;;;4.75;1.90;;;12.50;99.90;;;;;;5077606;28;20370;-68
2022/01/29 12:39:26;;;;;;;3.63;1.80;;;12.60;99.90;;;;;;5076592;28;20039;-69
2022/01/29 12:42:04;;;;;;;2.30;1.50;;;12.80;99.90;;;;;;5077664;28;20123;-69
2022/01/29 12:44:29;;;;;;;2.47;1.40;;;12.90;99.90;;;;;;5078291;28;20357;-67
2022/01/29 12:46:55;;;;;;;3.22;1.60;;;12.70;99.90;;;;;;5078625;28;20119;-67
2022/01/29 12:49:21;;;;;;;3.83;1.60;;;12.90;99.90;;;;;;5077399;28;20304;-65
2022/01/29 12:51:54;;;;;;;3.55;1.35;;;12.90;99.90;;;;;;5078070;28;20029;-67
2022/01/29 12:54:20;;;;;;;3.65;1.48;;;13.30;99.90;;;;;;5077266;28;20051;-67
2022/01/29 12:56:47;;;;;;;3.17;1.30;;;13.60;99.90;;;;;;5078044;28;20020;-70
2022/01/29 12:59:15;;;;;;;3.55;1.50;;;13.80;99.90;;;;;;5077833;28;20105;-67
2022/01/29 13:01:44;;;;;;;3.17;1.33;;;13.90;99.90;;;;;;5060673;28;20404;-66
2022/01/29 13:04:17;;;;;;;3.97;1.52;;;13.90;99.90;;;;;;5077730;28;20101;-66